createdAt,value
2018-12-22T00:00:46.722Z,11.00
2018-12-22T00:03:14.252Z,10.90
2018-12-22T00:05:41.763Z,10.90
2018-12-22T00:08:12.999Z,10.90
2018-12-22T00:10:40.532Z,10.80
2018-12-22T00:13:07.992Z,10.90
2018-12-22T00:15:39.213Z,10.80
2018-12-22T00:18:16.504Z,10.80
2018-12-22T00:20:44.892Z,10.70
2018-12-22T00:23:13.323Z,10.80
2018-12-22T00:25:41.407Z,10.80
2018-12-22T00:28:08.934Z,10.70
2018-12-22T00:30:36.441Z,10.70
2018-12-22T00:33:04.026Z,10.70
2018-12-22T00:35:39.192Z,10.70
2018-12-22T00:38:07.718Z,10.70
2018-12-22T00:40:35.368Z,10.70
2018-12-22T00:43:02.830Z,10.70
2018-12-22T00:45:30.343Z,10.60
2018-12-22T00:48:04.484Z,10.70
2018-12-22T00:50:41.846Z,10.70
2018-12-22T00:53:09.432Z,10.60
2018-12-22T00:55:37.923Z,10.50
2018-12-22T00:58:05.443Z,10.70
2018-12-22T01:00:32.918Z,10.70
2018-12-22T01:03:00.418Z,10.80
2018-12-22T01:05:27.915Z,10.70
2018-12-22T01:07:55.620Z,10.80
2018-12-22T01:10:24.205Z,10.70
2018-12-22T01:12:51.747Z,10.60
2018-12-22T01:15:19.441Z,10.60
2018-12-22T01:17:46.991Z,10.60
2018-12-22T01:20:14.545Z,10.70
2018-12-22T01:22:42.120Z,10.60
2018-12-22T01:25:09.730Z,10.50
2018-12-22T01:27:49.861Z,10.40
2018-12-22T01:30:17.668Z,10.40
2018-12-22T01:32:45.308Z,10.40
2018-12-22T01:35:14.466Z,10.40
2018-12-22T01:37:41.965Z,10.30
2018-12-22T01:40:09.500Z,10.40
2018-12-22T01:42:37.267Z,10.40
2018-12-22T01:45:05.428Z,10.30
2018-12-22T01:47:33.016Z,10.30
2018-12-22T01:50:14.986Z,10.30
2018-12-22T01:52:42.572Z,10.40
2018-12-22T01:55:10.087Z,10.40
2018-12-22T01:57:37.651Z,10.40
2018-12-22T02:00:07.059Z,10.40
2018-12-22T02:02:46.839Z,10.30
2018-12-22T02:05:14.438Z,10.40
2018-12-22T02:07:42.039Z,10.50
2018-12-22T02:10:09.626Z,10.40
2018-12-22T02:12:37.079Z,10.30
2018-12-22T02:15:05.293Z,10.30
2018-12-22T02:17:32.754Z,10.30
2018-12-22T02:20:00.182Z,10.30
2018-12-22T02:22:27.662Z,10.30
2018-12-22T02:24:55.121Z,10.20
2018-12-22T02:27:22.670Z,10.20
2018-12-22T02:29:50.199Z,10.20
2018-12-22T02:32:18.414Z,10.20
2018-12-22T02:34:46.118Z,10.10
2018-12-22T02:37:13.577Z,10.20
2018-12-22T02:39:41.054Z,10.20
2018-12-22T02:42:08.581Z,10.20
2018-12-22T02:44:36.147Z,10.20
2018-12-22T02:47:03.688Z,10.20
2018-12-22T02:49:31.204Z,10.10
2018-12-22T02:51:58.695Z,10.20
2018-12-22T02:54:26.308Z,10.20
2018-12-22T02:59:33.561Z,10.20
2018-12-22T03:02:07.117Z,10.20
2018-12-22T03:04:41.670Z,10.30
2018-12-22T03:10:08.603Z,10.50
2018-12-22T03:12:36.099Z,10.60
2018-12-22T03:15:04.156Z,10.70
2018-12-22T03:17:31.619Z,10.70
2018-12-22T03:19:59.291Z,10.70
2018-12-22T03:22:26.785Z,10.90
2018-12-22T03:24:54.293Z,10.70
2018-12-22T03:27:21.726Z,10.80
2018-12-22T03:29:49.185Z,10.70
2018-12-22T03:32:16.655Z,10.70
2018-12-22T03:34:44.115Z,10.80
2018-12-22T03:37:11.590Z,10.90
2018-12-22T03:39:39.056Z,10.90
2018-12-22T03:42:06.926Z,11.00
2018-12-22T03:44:34.482Z,10.90
2018-12-22T03:47:01.899Z,10.90
2018-12-22T03:49:29.372Z,10.90
2018-12-22T03:51:56.858Z,10.80
2018-12-22T03:54:24.356Z,10.80
2018-12-22T03:56:51.888Z,10.90
2018-12-22T03:59:24.751Z,10.90
2018-12-22T04:04:48.811Z,10.70
2018-12-22T04:07:16.278Z,10.70
2018-12-22T04:09:49.999Z,10.70
2018-12-22T04:12:17.608Z,10.60
2018-12-22T04:14:45.352Z,10.60
2018-12-22T04:17:23.161Z,10.50
2018-12-22T04:19:50.630Z,10.60
2018-12-22T04:22:18.318Z,10.50
2018-12-22T04:27:38.818Z,10.60
2018-12-22T04:30:06.933Z,10.60
2018-12-22T04:32:34.924Z,10.50
2018-12-22T04:35:02.947Z,10.60
2018-12-22T04:37:30.924Z,10.70
2018-12-22T04:39:58.721Z,10.70
2018-12-22T04:42:26.686Z,10.80
2018-12-22T04:44:55.355Z,10.80
2018-12-22T04:47:23.238Z,10.80
2018-12-22T04:49:50.690Z,10.60
2018-12-22T04:52:18.134Z,10.70
2018-12-22T04:54:45.646Z,10.70
2018-12-22T04:57:13.108Z,10.60
2018-12-22T04:59:43.210Z,10.80
2018-12-22T05:02:11.224Z,10.80
2018-12-22T05:04:42.589Z,10.70
2018-12-22T05:07:10.172Z,10.80
2018-12-22T05:09:37.692Z,10.80
2018-12-22T05:12:05.217Z,10.80
2018-12-22T05:14:32.621Z,10.90
2018-12-22T05:17:00.089Z,10.90
2018-12-22T05:19:27.726Z,10.80
2018-12-22T05:21:55.189Z,10.80
2018-12-22T05:24:22.685Z,10.80
2018-12-22T05:26:50.161Z,10.70
2018-12-22T05:29:17.644Z,10.80
2018-12-22T05:31:45.114Z,10.80
2018-12-22T05:34:12.567Z,10.80
2018-12-22T05:36:40.020Z,10.80
2018-12-22T05:39:07.465Z,10.90
2018-12-22T05:41:35.326Z,10.80
2018-12-22T05:44:04.072Z,10.80
2018-12-22T05:46:31.512Z,10.90
2018-12-22T05:48:59.020Z,11.00
2018-12-22T05:51:29.870Z,11.00
2018-12-22T05:53:57.329Z,11.10
2018-12-22T05:56:24.772Z,11.20
2018-12-22T05:58:52.318Z,11.30
2018-12-22T06:01:19.833Z,11.40
2018-12-22T06:03:47.299Z,11.40
2018-12-22T06:06:16.371Z,11.40
2018-12-22T06:08:43.826Z,11.40
2018-12-22T06:11:17.650Z,11.40
2018-12-22T06:16:44.210Z,11.40
2018-12-22T06:19:11.689Z,11.30
2018-12-22T06:21:39.157Z,11.20
2018-12-22T06:24:07.006Z,11.30
2018-12-22T06:26:34.438Z,11.30
2018-12-22T06:29:01.920Z,11.10
2018-12-22T06:31:32.671Z,11.10
2018-12-22T06:34:05.938Z,11.00
2018-12-22T06:36:39.732Z,11.20
2018-12-22T06:39:10.873Z,11.20
2018-12-22T06:41:38.345Z,11.30
2018-12-22T06:44:05.814Z,11.10
2018-12-22T06:46:33.259Z,11.10
2018-12-22T06:49:00.763Z,11.20
2018-12-22T06:51:28.335Z,11.10
2018-12-22T06:53:55.912Z,11.10
2018-12-22T06:56:23.479Z,11.10
2018-12-22T06:58:50.918Z,11.00
2018-12-22T07:01:18.363Z,11.20
2018-12-22T07:06:13.207Z,11.20
2018-12-22T07:08:40.717Z,11.20
2018-12-22T07:11:08.227Z,11.10
2018-12-22T07:16:35.734Z,11.20
2018-12-22T07:19:03.283Z,11.30
2018-12-22T07:21:30.766Z,11.30
2018-12-22T07:23:58.192Z,11.20
2018-12-22T07:26:25.632Z,11.30
2018-12-22T07:28:53.125Z,11.20
2018-12-22T07:31:20.987Z,11.20
2018-12-22T07:33:48.554Z,11.20
2018-12-22T07:36:16.293Z,11.20
2018-12-22T07:38:43.702Z,11.30
2018-12-22T07:41:11.193Z,11.20
2018-12-22T07:43:38.781Z,11.40
2018-12-22T07:46:06.353Z,11.40
2018-12-22T07:48:34.039Z,11.40
2018-12-22T07:51:01.703Z,11.30
2018-12-22T07:53:29.167Z,11.30
2018-12-22T07:55:56.891Z,11.20
2018-12-22T07:58:24.399Z,11.30
2018-12-22T08:00:51.925Z,11.30
2018-12-22T08:03:19.390Z,11.30
2018-12-22T08:05:46.851Z,11.40
2018-12-22T08:08:14.306Z,11.30
2018-12-22T08:10:41.735Z,11.20
2018-12-22T08:13:09.176Z,11.40
2018-12-22T08:15:36.634Z,11.40
2018-12-22T08:18:04.180Z,11.40
2018-12-22T08:20:31.858Z,11.30
2018-12-22T08:22:59.380Z,11.40
2018-12-22T08:25:26.908Z,11.50
2018-12-22T08:27:54.427Z,11.50
2018-12-22T08:30:22.018Z,11.40
2018-12-22T08:32:49.491Z,11.50
2018-12-22T08:35:17.017Z,11.60
2018-12-22T08:37:44.540Z,11.60
2018-12-22T08:40:12.035Z,11.50
2018-12-22T08:42:39.519Z,11.60
2018-12-22T08:45:07.533Z,11.70
2018-12-22T08:47:35.057Z,11.60
2018-12-22T08:50:08.945Z,11.70
2018-12-22T08:52:32.243Z,11.70
2018-12-22T08:54:59.748Z,11.70
2018-12-22T08:57:27.235Z,11.80
2018-12-22T08:59:54.731Z,11.70
2018-12-22T09:02:22.321Z,11.70
2018-12-22T09:04:50.101Z,11.70
2018-12-22T09:07:17.643Z,11.80
2018-12-22T09:09:45.148Z,11.80
2018-12-22T09:12:12.662Z,11.80
2018-12-22T09:14:40.139Z,11.80
2018-12-22T09:17:07.630Z,11.80
2018-12-22T09:19:35.210Z,11.80
2018-12-22T09:22:02.862Z,11.80
2018-12-22T09:24:30.362Z,11.70
2018-12-22T09:26:57.831Z,11.70
2018-12-22T09:29:25.271Z,11.70
2018-12-22T09:31:52.871Z,11.80
2018-12-22T09:34:20.581Z,11.80
2018-12-22T09:36:48.093Z,11.70
2018-12-22T09:39:15.598Z,11.60
2018-12-22T09:41:43.067Z,11.50
2018-12-22T09:44:10.613Z,11.50
2018-12-22T09:46:38.098Z,11.50
2018-12-22T09:49:05.626Z,11.50
2018-12-22T09:51:33.159Z,11.70
2018-12-22T09:54:00.698Z,12.10
2018-12-22T09:56:28.278Z,12.40
2018-12-22T09:58:55.757Z,12.80
2018-12-22T10:01:23.281Z,13.30
2018-12-22T10:03:50.785Z,13.40
2018-12-22T10:06:18.675Z,13.60
2018-12-22T10:08:46.383Z,13.20
2018-12-22T10:11:13.858Z,12.90
2018-12-22T10:13:41.408Z,12.90
2018-12-22T10:16:09.988Z,12.90
2018-12-22T10:18:37.483Z,13.40
2018-12-22T10:21:04.973Z,13.20
2018-12-22T10:23:32.575Z,13.50
2018-12-22T10:26:00.779Z,13.50
2018-12-22T10:28:29.112Z,13.30
2018-12-22T10:30:56.995Z,13.10
2018-12-22T10:33:24.471Z,13.00
2018-12-22T10:35:51.979Z,12.70
2018-12-22T10:38:19.482Z,13.00
2018-12-22T10:40:47.042Z,12.80
2018-12-22T10:43:15.200Z,12.60
2018-12-22T10:45:42.724Z,12.60
2018-12-22T10:48:10.321Z,12.50
2018-12-22T10:50:37.868Z,12.30
2018-12-22T10:53:05.551Z,12.10
2018-12-22T10:55:33.120Z,12.10
2018-12-22T10:58:00.656Z,12.20
2018-12-22T11:00:28.892Z,12.10
2018-12-22T11:02:56.333Z,12.00
2018-12-22T11:05:23.818Z,12.10
2018-12-22T11:07:51.332Z,12.10
2018-12-22T11:10:21.946Z,12.20
2018-12-22T11:12:49.832Z,12.30
2018-12-22T11:15:17.409Z,12.40
2018-12-22T11:17:44.880Z,12.60
2018-12-22T11:20:12.447Z,13.10
2018-12-22T11:22:39.933Z,14.80
2018-12-22T11:25:25.838Z,16.40
2018-12-22T11:27:53.538Z,17.20
2018-12-22T11:30:25.023Z,17.80
2018-12-22T11:32:52.459Z,16.60
2018-12-22T11:35:19.934Z,15.70
2018-12-22T11:37:47.473Z,15.40
2018-12-22T11:40:15.020Z,14.60
2018-12-22T11:42:47.616Z,13.90
2018-12-22T11:45:12.017Z,13.20
2018-12-22T11:47:43.638Z,12.90
2018-12-22T11:50:18.262Z,12.60
2018-12-22T11:52:45.756Z,12.50
2018-12-22T11:55:13.268Z,12.50
2018-12-22T11:57:40.876Z,12.70
2018-12-22T12:00:09.818Z,12.60
2018-12-22T12:05:35.747Z,12.70
2018-12-22T12:08:03.314Z,12.70
2018-12-22T12:10:30.863Z,12.50
2018-12-22T12:12:58.484Z,12.50
2018-12-22T12:15:30.220Z,12.20
2018-12-22T12:18:18.715Z,12.00
2018-12-22T12:20:46.181Z,11.90
2018-12-22T12:23:13.664Z,12.00
2018-12-22T12:25:41.211Z,12.00
2018-12-22T12:28:08.800Z,12.00
2018-12-22T12:30:36.336Z,12.00
2018-12-22T12:33:03.905Z,12.10
2018-12-22T12:35:31.382Z,12.10
2018-12-22T12:37:59.932Z,12.00
2018-12-22T12:40:27.387Z,12.10
2018-12-22T12:42:54.895Z,12.10
2018-12-22T12:45:22.424Z,12.00
2018-12-22T12:47:49.906Z,12.10
2018-12-22T12:50:19.426Z,12.10
2018-12-22T12:52:47.082Z,12.10
2018-12-22T12:55:14.646Z,12.10
2018-12-22T12:57:42.536Z,12.20
2018-12-22T13:00:12.473Z,12.10
2018-12-22T13:02:39.998Z,12.10
2018-12-22T13:05:08.663Z,12.20
2018-12-22T13:07:36.281Z,12.20
2018-12-22T13:10:04.931Z,12.20
2018-12-22T13:12:39.106Z,12.30
2018-12-22T13:15:09.150Z,12.20
2018-12-22T13:17:36.695Z,12.20
2018-12-22T13:20:05.696Z,12.10
2018-12-22T13:22:33.167Z,12.10
2018-12-22T13:25:00.869Z,12.20
2018-12-22T13:27:28.581Z,12.20
2018-12-22T13:29:56.241Z,12.20
2018-12-22T13:32:24.313Z,12.20
2018-12-22T13:34:51.847Z,12.20
2018-12-22T13:37:20.517Z,12.30
2018-12-22T13:39:54.274Z,12.30
2018-12-22T13:42:21.721Z,12.40
2018-12-22T13:44:49.263Z,12.50
2018-12-22T13:47:16.907Z,12.50
2018-12-22T13:49:44.596Z,12.40
2018-12-22T13:52:13.013Z,12.50
2018-12-22T13:54:40.551Z,12.60
2018-12-22T13:57:08.168Z,12.70
2018-12-22T13:59:35.618Z,12.60
2018-12-22T14:02:04.998Z,12.40
2018-12-22T14:04:34.500Z,12.30
2018-12-22T14:07:03.396Z,12.30
2018-12-22T14:09:30.899Z,12.20
2018-12-22T14:11:58.489Z,12.20
2018-12-22T14:14:30.950Z,12.10
2018-12-22T14:17:05.311Z,12.00
2018-12-22T14:19:33.000Z,12.00
2018-12-22T14:22:00.628Z,11.90
2018-12-22T14:24:33.037Z,12.00
2018-12-22T14:30:01.648Z,11.80
2018-12-22T14:32:29.100Z,11.70
2018-12-22T14:35:04.049Z,11.50
2018-12-22T14:37:31.499Z,11.40
2018-12-22T14:39:58.983Z,11.20
2018-12-22T14:42:26.571Z,11.30
2018-12-22T14:44:54.112Z,11.30
2018-12-22T14:47:21.539Z,11.10
2018-12-22T14:49:49.069Z,11.20
2018-12-22T14:52:16.685Z,11.00
2018-12-22T14:54:44.217Z,11.00
2018-12-22T14:57:18.430Z,10.90
2018-12-22T14:59:46.023Z,10.90
2018-12-22T15:02:13.693Z,10.60
2018-12-22T15:04:41.171Z,10.70
2018-12-22T15:07:08.675Z,10.60
2018-12-22T15:09:36.126Z,10.60
2018-12-22T15:12:03.699Z,10.50
2018-12-22T15:14:31.150Z,10.30
2018-12-22T15:16:58.721Z,10.40
2018-12-22T15:19:26.428Z,10.20
2018-12-22T15:21:56.479Z,10.20
2018-12-22T15:24:23.958Z,10.20
2018-12-22T15:26:51.447Z,10.30
2018-12-22T15:29:19.028Z,10.10
2018-12-22T15:31:46.561Z,10.10
2018-12-22T15:34:14.065Z,10.10
2018-12-22T15:36:41.582Z,10.00
2018-12-22T15:39:09.053Z,9.90
2018-12-22T15:41:36.665Z,9.80
2018-12-22T15:44:04.139Z,9.90
2018-12-22T15:46:31.606Z,9.90
2018-12-22T15:48:59.182Z,9.90
2018-12-22T15:51:26.753Z,9.80
2018-12-22T15:53:54.225Z,9.80
2018-12-22T15:56:21.676Z,9.80
2018-12-22T15:58:49.177Z,9.80
2018-12-22T16:01:16.663Z,9.70
2018-12-22T16:03:44.178Z,9.70
2018-12-22T16:06:11.774Z,9.70
2018-12-22T16:08:39.269Z,9.60
2018-12-22T16:11:06.775Z,9.60
2018-12-22T16:13:34.284Z,9.70
2018-12-22T16:16:01.807Z,9.60
2018-12-22T16:18:29.351Z,9.50
2018-12-22T16:20:56.914Z,9.40
2018-12-22T16:23:24.947Z,9.40
2018-12-22T16:25:52.459Z,9.50
2018-12-22T16:28:22.887Z,9.30
2018-12-22T16:30:54.246Z,9.40
2018-12-22T16:33:21.826Z,9.30
2018-12-22T16:35:49.485Z,9.30
2018-12-22T16:38:17.031Z,9.20
2018-12-22T16:40:44.509Z,9.10
2018-12-22T16:43:13.368Z,9.00
2018-12-22T16:45:45.649Z,9.00
2018-12-22T16:48:13.182Z,8.80
2018-12-22T16:50:42.475Z,8.80
2018-12-22T16:53:09.918Z,8.80
2018-12-22T16:55:37.386Z,8.70
2018-12-22T16:58:08.779Z,8.70
2018-12-22T17:00:42.000Z,8.70
2018-12-22T17:03:10.940Z,8.60
2018-12-22T17:05:38.908Z,8.60
2018-12-22T17:08:06.420Z,8.60
2018-12-22T17:10:37.977Z,8.60
2018-12-22T17:13:12.289Z,8.60
2018-12-22T17:15:44.483Z,8.50
2018-12-22T17:18:12.177Z,8.50
2018-12-22T17:20:39.986Z,8.50
2018-12-22T17:23:16.228Z,8.40
2018-12-22T17:25:53.405Z,8.30
2018-12-22T17:28:28.490Z,8.40
2018-12-22T17:31:12.388Z,8.20
2018-12-22T17:33:46.343Z,8.40
2018-12-22T17:36:33.001Z,8.40
2018-12-22T17:39:00.520Z,8.40
2018-12-22T17:41:28.024Z,8.40
2018-12-22T17:43:56.573Z,8.30
2018-12-22T17:52:31.962Z,8.30
2018-12-22T17:57:59.077Z,8.40
2018-12-22T18:00:26.638Z,8.40
2018-12-22T18:02:54.111Z,8.50
2018-12-22T18:05:21.663Z,8.50
2018-12-22T18:07:49.131Z,8.50
2018-12-22T18:10:16.667Z,8.60
2018-12-22T18:12:44.146Z,8.40
2018-12-22T18:15:16.268Z,8.40
2018-12-22T18:17:44.028Z,8.40
2018-12-22T18:20:11.632Z,8.40
2018-12-22T18:22:39.096Z,8.50
2018-12-22T18:25:09.124Z,8.50
2018-12-22T18:27:36.557Z,8.40
2018-12-22T18:30:05.950Z,8.50
2018-12-22T18:32:33.446Z,8.60
2018-12-22T18:35:07.878Z,8.50
2018-12-22T18:37:35.412Z,8.40
2018-12-22T18:40:10.901Z,8.40
2018-12-22T18:42:55.394Z,8.40
2018-12-22T18:45:29.341Z,8.40
2018-12-22T18:47:56.915Z,8.40
2018-12-22T18:50:25.817Z,8.40
2018-12-22T18:52:53.350Z,8.30
2018-12-22T18:55:23.086Z,8.30
2018-12-22T18:57:53.003Z,8.30
2018-12-22T19:00:22.088Z,8.30
2018-12-22T19:02:50.147Z,8.20
2018-12-22T19:05:18.767Z,8.30
2018-12-22T19:10:55.536Z,8.20
2018-12-22T19:13:23.016Z,8.20
2018-12-22T19:15:50.466Z,8.10
2018-12-22T19:18:17.963Z,8.20
2018-12-22T19:20:48.095Z,8.20
2018-12-22T19:23:16.362Z,8.10
2018-12-22T19:25:43.862Z,8.00
2018-12-22T19:28:11.382Z,8.20
2018-12-22T19:30:38.917Z,8.10
2018-12-22T19:33:18.589Z,8.10
2018-12-22T19:35:46.160Z,8.10
2018-12-22T19:38:17.692Z,8.10
2018-12-22T19:40:45.687Z,8.10
2018-12-22T19:43:13.244Z,8.10
2018-12-22T19:45:40.827Z,8.20
2018-12-22T19:48:08.331Z,8.20
2018-12-22T19:50:35.760Z,8.20
2018-12-22T19:53:03.291Z,8.40
2018-12-22T19:55:30.722Z,8.40
2018-12-22T19:57:58.955Z,8.40
2018-12-22T20:00:26.560Z,8.40
2018-12-22T20:02:54.128Z,8.50
2018-12-22T20:05:27.571Z,8.60
2018-12-22T20:07:55.108Z,8.60
2018-12-22T20:10:22.626Z,8.80
2018-12-22T20:12:50.076Z,8.90
2018-12-22T20:15:17.654Z,8.90
2018-12-22T20:17:45.169Z,8.80
2018-12-22T20:20:12.918Z,8.90
2018-12-22T20:22:40.495Z,8.90
2018-12-22T20:25:08.120Z,8.90
2018-12-22T20:27:35.708Z,8.90
2018-12-22T20:30:04.001Z,8.80
2018-12-22T20:32:31.658Z,8.90
2018-12-22T20:34:59.409Z,8.70
2018-12-22T20:37:26.926Z,8.90
2018-12-22T20:39:54.536Z,8.90
2018-12-22T20:42:22.095Z,8.80
2018-12-22T20:44:49.851Z,8.80
2018-12-22T20:47:17.329Z,8.90
2018-12-22T20:49:44.881Z,8.90
2018-12-22T20:52:12.419Z,8.90
2018-12-22T20:54:40.055Z,8.90
2018-12-22T20:57:07.531Z,9.00
2018-12-22T20:59:35.364Z,8.90
2018-12-22T21:02:02.919Z,8.90
2018-12-22T21:04:30.820Z,8.80
2018-12-22T21:06:58.485Z,8.80
2018-12-22T21:09:26.021Z,8.80
2018-12-22T21:11:53.638Z,8.80
2018-12-22T21:14:21.247Z,8.70
2018-12-22T21:16:48.978Z,8.60
2018-12-22T21:19:22.907Z,8.50
2018-12-22T21:21:50.592Z,8.50
2018-12-22T21:24:18.100Z,8.50
2018-12-22T21:26:49.522Z,8.30
2018-12-22T21:31:54.629Z,8.40
2018-12-22T21:34:28.251Z,8.50
2018-12-22T21:36:52.323Z,8.50
2018-12-22T21:39:20.191Z,8.50
2018-12-22T21:41:47.912Z,8.60
2018-12-22T21:44:16.524Z,8.60
2018-12-22T21:46:44.235Z,8.70
2018-12-22T21:49:11.778Z,8.60
2018-12-22T21:51:39.256Z,8.60
2018-12-22T21:54:08.582Z,8.60
2018-12-22T21:56:36.133Z,8.50
2018-12-22T21:59:03.879Z,8.60
2018-12-22T22:01:31.384Z,8.80
2018-12-22T22:03:59.048Z,8.70
2018-12-22T22:06:26.550Z,8.50
2018-12-22T22:08:54.144Z,8.40
2018-12-22T22:11:21.880Z,8.50
2018-12-22T22:13:49.435Z,8.50
2018-12-22T22:16:17.179Z,8.30
2018-12-22T22:18:44.883Z,8.40
2018-12-22T22:21:12.495Z,8.40
2018-12-22T22:26:38.482Z,8.40
2018-12-22T22:29:06.011Z,8.30
2018-12-22T22:31:33.466Z,8.30
2018-12-22T22:34:00.956Z,8.20
2018-12-22T22:36:28.477Z,8.30
2018-12-22T22:38:56.018Z,8.20
2018-12-22T22:41:23.624Z,8.10
2018-12-22T22:43:51.191Z,8.30
2018-12-22T22:46:18.759Z,8.20
2018-12-22T22:48:46.277Z,8.20
2018-12-22T22:51:13.976Z,8.10
2018-12-22T22:53:41.507Z,8.00
2018-12-22T22:56:10.111Z,8.00
2018-12-22T22:58:37.691Z,8.00
2018-12-22T23:01:05.166Z,8.00
2018-12-22T23:03:32.658Z,7.90
2018-12-22T23:06:00.164Z,8.10
2018-12-22T23:08:27.694Z,8.00
2018-12-22T23:10:55.302Z,7.90
2018-12-22T23:13:24.669Z,8.10
2018-12-22T23:15:52.269Z,8.10
2018-12-22T23:18:19.727Z,8.00
2018-12-22T23:20:47.181Z,8.00
2018-12-22T23:23:14.742Z,8.00
2018-12-22T23:25:42.214Z,7.90
2018-12-22T23:28:09.714Z,7.90
2018-12-22T23:30:37.160Z,7.90
2018-12-22T23:36:04.531Z,7.90
2018-12-22T23:38:31.918Z,8.00
2018-12-22T23:40:59.295Z,7.90
2018-12-22T23:43:26.748Z,7.90
2018-12-22T23:45:54.309Z,7.80
2018-12-22T23:48:21.840Z,7.90
2018-12-22T23:50:49.456Z,7.90
2018-12-22T23:53:17.232Z,7.90
2018-12-22T23:55:44.801Z,7.90
2018-12-22T23:58:13.296Z,7.90
